Time;durP1;ratioP1;P1;durP2;ratioP2;P2;SDS_P1;SDS_P2;PMS_P1;PMS_P2;Temp;Humidity;BMP_temperature;BMP_pressure;BME280_temperature;BME280_humidity;BME280_pressure;Samples;Min_cycle;Max_cycle;Signal;HPM_P1;HPM_P2
2024/01/08 00:01:53;;;;;;;10.50;8.13;;;;;;;-1.85;60.04;99190.69;5108039;28;20169;-70
2024/01/08 00:04:21;;;;;;;12.85;9.10;;;;;;;-1.79;60.15;99191.50;5089987;28;20036;-71
2024/01/08 00:06:48;;;;;;;13.63;9.30;;;;;;;-1.81;60.12;99182.84;5107983;28;20048;-70
2024/01/08 00:09:14;;;;;;;13.77;8.95;;;;;;;-1.80;59.43;99183.72;5107632;28;20085;-70
2024/01/08 00:11:41;;;;;;;12.20;8.90;;;;;;;-1.81;60.46;99184.59;5107741;28;20044;-70
2024/01/08 00:14:08;;;;;;;12.57;8.52;;;;;;;-1.75;60.34;99188.00;5108140;28;20044;-70
2024/01/08 00:16:34;;;;;;;11.75;8.57;;;;;;;-1.81;59.99;99187.19;5108307;28;20048;-70
2024/01/08 00:19:01;;;;;;;11.98;8.25;;;;;;;-1.87;59.68;99189.81;5107440;28;20361;-70
2024/01/08 00:21:29;;;;;;;11.15;8.52;;;;;;;-1.82;59.81;99186.31;5107597;28;20060;-70
2024/01/08 00:23:55;;;;;;;10.48;8.38;;;;;;;-1.81;59.11;99188.03;5106922;28;20315;-70
2024/01/08 00:26:24;;;;;;;10.68;8.10;;;;;;;-2.10;59.14;99162.28;5107583;28;20044;-70
2024/01/08 00:28:51;;;;;;;13.70;8.93;;;;;;;-1.97;58.45;99195.09;5107791;28;20047;-70
2024/01/08 00:31:18;;;;;;;12.35;7.82;;;;;;;-1.99;58.22;99196.84;5108045;28;20086;-70
2024/01/08 00:33:44;;;;;;;11.35;8.25;;;;;;;-2.01;58.37;99190.78;5107409;28;20040;-70
2024/01/08 00:36:11;;;;;;;10.57;8.38;;;;;;;-2.02;58.75;99202.06;5107369;28;20047;-70
2024/01/08 00:38:39;;;;;;;10.80;7.82;;;;;;;-2.33;58.22;99172.84;5107332;28;20055;-70
2024/01/08 00:41:06;;;;;;;11.95;7.70;;;;;;;-2.01;58.55;99200.31;5107257;28;20089;-70
2024/01/08 00:43:32;;;;;;;10.93;7.80;;;;;;;-2.05;58.61;99196.88;5107424;28;20040;-69
2024/01/08 00:45:59;;;;;;;11.25;7.93;;;;;;;-1.99;58.93;99204.63;5107430;28;20044;-70
2024/01/08 00:48:26;;;;;;;9.80;7.35;;;;;;;-2.13;57.93;99200.41;5107395;28;20040;-69
2024/01/08 00:50:53;;;;;;;10.48;7.60;;;;;;;-2.13;58.32;99215.97;5106592;28;20082;-70
2024/01/08 00:53:19;;;;;;;11.48;8.07;;;;;;;-2.13;58.81;99203.00;5089866;28;20229;-70
2024/01/08 00:55:50;;;;;;;11.82;7.95;;;;;;;-2.66;58.46;99115.97;5106974;28;20089;-69
2024/01/08 00:58:16;;;;;;;14.52;9.82;;;;;;;-2.17;58.62;99198.69;5106942;28;20051;-70
2024/01/08 01:00:43;;;;;;;12.02;8.73;;;;;;;-2.07;58.84;99213.34;5106632;28;20319;-69
2024/01/08 01:03:11;;;;;;;13.40;8.02;;;;;;;-1.99;59.26;99214.16;5106520;28;20039;-70
2024/01/08 01:05:38;;;;;;;13.48;9.13;;;;;;;-2.01;59.04;99214.16;5107090;28;20200;-70
2024/01/08 01:08:05;;;;;;;13.48;8.75;;;;;;;-2.02;59.06;99215.03;5106979;28;20044;-70
2024/01/08 01:10:31;;;;;;;13.45;9.18;;;;;;;-2.11;59.16;99209.06;5106697;28;20043;-70
2024/01/08 01:13:00;;;;;;;11.93;8.82;;;;;;;-2.03;59.36;99215.06;5106399;28;20354;-69
2024/01/08 01:15:27;;;;;;;14.05;9.35;;;;;;;-2.04;59.35;99226.31;5106600;28;20106;-70
2024/01/08 01:17:53;;;;;;;16.88;9.23;;;;;;;-2.13;59.14;99205.59;5106641;28;20043;-70
2024/01/08 01:20:20;;;;;;;14.50;9.60;;;;;;;-2.09;59.27;99215.09;5106394;28;20097;-69
2024/01/08 01:22:47;;;;;;;14.55;10.48;;;;;;;-2.11;59.56;99211.66;5105760;28;20043;-69
2024/01/08 01:25:13;;;;;;;13.13;8.80;;;;;;;-2.10;59.73;99219.44;5106546;28;20296;-69
2024/01/08 01:27:40;;;;;;;12.32;9.02;;;;;;;-2.06;59.83;99225.47;5106707;28;20055;-70
2024/01/08 01:30:10;;;;;;;13.75;9.20;;;;;;;-2.02;60.05;99215.03;5106115;28;20104;-69
2024/01/08 01:32:36;;;;;;;14.52;10.20;;;;;;;-2.05;60.06;99219.41;5106405;28;20040;-69
2024/01/08 01:35:07;;;;;;;13.13;9.50;;;;;;;-1.98;60.09;99214.16;5106331;28;20048;-69
2024/01/08 01:37:33;;;;;;;12.38;9.98;;;;;;;-1.99;59.84;99216.75;5105980;28;20036;-70
2024/01/08 01:40:00;;;;;;;13.02;9.85;;;;;;;-2.13;59.76;99224.63;5106255;28;20085;-69
2024/01/08 01:42:27;;;;;;;14.43;10.60;;;;;;;-2.05;59.90;99225.44;5088203;28;20044;-70
2024/01/08 01:44:53;;;;;;;13.55;8.95;;;;;;;-2.02;60.23;99227.16;5106074;28;20044;-70
2024/01/08 01:47:23;;;;;;;14.70;10.35;;;;;;;-2.00;60.13;99226.28;5106090;28;20101;-69
2024/01/08 01:49:50;;;;;;;11.73;9.45;;;;;;;-2.12;60.17;99225.50;5105828;28;20082;-69
2024/01/08 01:52:17;;;;;;;14.15;9.55;;;;;;;-2.06;60.19;99222.88;5106357;28;20233;-69
2024/01/08 01:54:44;;;;;;;14.00;9.85;;;;;;;-2.02;60.51;99224.56;5106053;28;20161;-69
2024/01/08 01:57:11;;;;;;;17.77;10.73;;;;;;;-2.04;60.21;99227.19;5106032;28;20089;-69
2024/01/08 01:59:38;;;;;;;13.27;9.30;;;;;;;-2.06;60.64;99217.66;5105680;28;20085;-69
2024/01/08 02:02:07;;;;;;;12.88;10.32;;;;;;;-2.03;60.50;99233.22;5105689;28;20100;-69
2024/01/08 02:04:36;;;;;;;14.40;10.07;;;;;;;-2.06;60.55;99233.25;5105566;28;20036;-70
2024/01/08 02:07:05;;;;;;;15.90;10.57;;;;;;;-2.08;60.59;99230.66;5106202;28;20048;-70
2024/01/08 02:09:32;;;;;;;13.27;9.30;;;;;;;-2.14;60.67;99224.66;5089007;28;20040;-70
2024/01/08 02:11:59;;;;;;;16.92;9.52;;;;;;;-2.10;60.68;99227.22;5105896;28;20089;-70
2024/01/08 02:14:26;;;;;;;13.45;10.38;;;;;;;-2.11;61.07;99232.41;5106127;28;20204;-70
2024/01/08 02:16:53;;;;;;;15.63;10.25;;;;;;;-2.35;61.32;99195.34;5106100;28;20226;-68
2024/01/08 02:19:19;;;;;;;14.80;11.02;;;;;;;-2.15;61.15;99228.13;5105503;28;20342;-68
2024/01/08 02:21:49;;;;;;;15.32;10.98;;;;;;;-2.19;61.03;99222.09;5105762;28;20173;-68
2024/01/08 02:24:17;;;;;;;15.07;9.88;;;;;;;-2.22;61.06;99229.03;5105645;28;20043;-68
2024/01/08 02:26:44;;;;;;;15.48;11.25;;;;;;;-2.27;61.39;99231.66;5105315;28;20063;-69
2024/01/08 02:29:10;;;;;;;13.65;10.18;;;;;;;-2.22;61.50;99226.44;5105424;28;20316;-70
2024/01/08 02:31:37;;;;;;;12.20;8.93;;;;;;;-2.27;61.09;99225.59;5105690;28;20044;-70
2024/01/08 02:34:04;;;;;;;14.45;11.23;;;;;;;-2.32;61.17;99221.28;5105666;28;20097;-70
2024/01/08 02:36:30;;;;;;;14.60;10.93;;;;;;;-2.38;61.25;99229.13;5092523;28;20169;-70
2024/01/08 02:38:57;;;;;;;14.75;10.70;;;;;;;-2.30;61.43;99232.53;5109640;28;20043;-70
2024/01/08 02:41:25;;;;;;;12.32;8.95;;;;;;;-2.51;61.73;99201.50;5109627;28;20043;-70
2024/01/08 02:43:51;;;;;;;14.73;10.10;;;;;;;-2.69;61.63;99167.84;5109207;28;20094;-70
2024/01/08 02:46:18;;;;;;;13.57;10.25;;;;;;;-2.30;61.77;99229.06;5109486;28;20043;-70
2024/01/08 02:48:45;;;;;;;15.02;10.88;;;;;;;-2.28;61.75;99242.03;5109447;28;20043;-70
2024/01/08 02:51:11;;;;;;;13.05;10.05;;;;;;;-2.40;61.60;99243.81;5109164;28;20112;-70
2024/01/08 02:53:38;;;;;;;15.07;10.13;;;;;;;-2.33;61.80;99239.47;5109368;28;20048;-70
2024/01/08 02:56:05;;;;;;;15.43;11.32;;;;;;;-2.50;61.44;99207.56;5109292;28;20044;-70
2024/01/08 02:58:33;;;;;;;13.18;8.82;;;;;;;-2.30;61.44;99242.06;5109563;28;20289;-70
2024/01/08 03:01:00;;;;;;;13.93;10.85;;;;;;;-2.29;61.46;99241.19;5109503;28;20109;-70
2024/01/08 03:03:27;;;;;;;15.77;10.85;;;;;;;-2.28;61.78;99242.91;5108820;28;20069;-68
2024/01/08 03:05:54;;;;;;;13.35;9.82;;;;;;;-2.48;61.45;99206.66;5108909;28;20039;-68
2024/01/08 03:08:21;;;;;;;13.48;9.48;;;;;;;-2.31;61.52;99241.19;5109423;28;20078;-69
2024/01/08 03:10:47;;;;;;;15.00;9.98;;;;;;;-2.30;61.42;99245.50;5109030;28;20040;-68
2024/01/08 03:13:14;;;;;;;12.32;9.18;;;;;;;-2.34;61.56;99237.75;5109275;28;20196;-68
2024/01/08 03:15:42;;;;;;;14.45;9.23;;;;;;;-2.36;61.32;99255.91;5108652;28;20044;-71
2024/01/08 03:18:09;;;;;;;12.98;9.63;;;;;;;-2.54;61.27;99224.88;5109188;28;20085;-68
2024/01/08 03:20:35;;;;;;;16.13;10.55;;;;;;;-2.37;61.57;99251.59;5108601;28;20055;-68
2024/01/08 03:23:02;;;;;;;14.52;10.02;;;;;;;-2.39;61.54;99249.88;5108603;28;20052;-68
2024/01/08 03:25:29;;;;;;;13.63;9.07;;;;;;;-2.37;61.47;99256.78;5090796;28;20052;-68
2024/01/08 03:27:55;;;;;;;11.65;9.73;;;;;;;-2.94;61.14;99154.16;5108703;28;20040;-68
2024/01/08 03:30:22;;;;;;;10.82;9.15;;;;;;;-2.34;61.41;99259.38;5090788;28;20048;-68
2024/01/08 03:32:51;;;;;;;16.17;10.45;;;;;;;-2.35;61.51;99260.25;5108920;28;20043;-68
2024/01/08 03:35:18;;;;;;;13.32;9.90;;;;;;;-2.43;61.50;99267.19;5108460;28;20046;-68
2024/01/08 03:37:45;;;;;;;14.48;10.50;;;;;;;-2.42;61.77;99262.88;5108534;28;20196;-68
2024/01/08 03:40:12;;;;;;;13.18;9.70;;;;;;;-2.38;61.49;99262.00;5108540;28;20044;-68
2024/01/08 03:42:39;;;;;;;12.85;10.05;;;;;;;-2.38;61.24;99267.19;5108418;28;20046;-68
2024/01/08 03:45:06;;;;;;;14.60;9.40;;;;;;;-2.44;61.29;99262.88;5108598;28;20200;-68
2024/01/08 03:47:32;;;;;;;13.18;9.73;;;;;;;-2.37;61.02;99269.78;5107289;28;20311;-68
2024/01/08 03:50:00;;;;;;;14.63;9.65;;;;;;;-2.44;61.02;99262.00;5107988;28;20067;-68
2024/01/08 03:52:27;;;;;;;14.35;9.98;;;;;;;-2.67;61.10;99241.34;5108217;28;20098;-68
2024/01/08 03:54:54;;;;;;;13.38;9.38;;;;;;;-2.51;60.95;99265.50;5107889;28;20036;-68
2024/01/08 03:57:20;;;;;;;13.93;8.85;;;;;;;-2.54;61.05;99270.72;5108224;28;20189;-68
2024/01/08 03:59:47;;;;;;;12.07;8.68;;;;;;;-2.59;61.12;99275.91;5107806;28;20063;-68
2024/01/08 04:02:14;;;;;;;11.85;8.73;;;;;;;-2.53;61.29;99275.91;5108019;28;20044;-68
2024/01/08 04:04:42;;;;;;;13.20;9.60;;;;;;;-2.57;60.91;99281.97;5107907;28;20115;-68
2024/01/08 04:07:10;;;;;;;14.68;8.73;;;;;;;-2.55;61.00;99289.75;5107950;28;20103;-68
2024/01/08 04:09:37;;;;;;;13.55;8.98;;;;;;;-2.48;61.29;99286.25;5107914;28;20055;-67
2024/01/08 04:12:05;;;;;;;14.52;9.55;;;;;;;-2.56;60.58;99293.22;5107877;28;20040;-68
2024/01/08 04:14:32;;;;;;;14.20;9.85;;;;;;;-2.52;61.19;99305.31;5107933;28;20055;-68
2024/01/08 04:16:58;;;;;;;14.98;10.52;;;;;;;-2.60;60.66;99299.28;5107917;28;20036;-70
2024/01/08 04:19:25;;;;;;;14.52;9.02;;;;;;;-2.53;60.88;99290.59;5107894;28;20040;-68
2024/01/08 04:21:52;;;;;;;11.80;8.35;;;;;;;-2.58;60.68;99294.94;5108025;28;20052;-69
2024/01/08 04:24:20;;;;;;;12.27;8.55;;;;;;;-2.53;60.92;99291.47;5107285;28;20043;-69
2024/01/08 04:26:46;;;;;;;15.25;9.82;;;;;;;-2.58;61.03;99298.41;5107317;28;20284;-69
2024/01/08 04:29:13;;;;;;;14.15;8.85;;;;;;;-2.67;60.59;99306.22;5107431;28;20062;-69
2024/01/08 04:31:40;;;;;;;14.90;9.25;;;;;;;-2.66;60.32;99303.63;5107400;28;20044;-69
2024/01/08 04:34:06;;;;;;;12.70;8.75;;;;;;;-2.68;60.52;99312.28;5089996;28;20215;-69
2024/01/08 04:36:33;;;;;;;12.13;8.88;;;;;;;-2.70;60.30;99309.69;5107335;28;20051;-69
2024/01/08 04:39:00;;;;;;;12.60;8.48;;;;;;;-2.78;60.36;99324.41;5107707;28;20277;-70
2024/01/08 04:41:27;;;;;;;11.75;8.15;;;;;;;-2.66;60.27;99329.56;5106720;28;20054;-69
2024/01/08 04:43:54;;;;;;;14.15;8.90;;;;;;;-2.65;59.83;99330.44;5107650;28;20242;-70
2024/01/08 04:46:21;;;;;;;13.40;8.38;;;;;;;-2.73;59.96;99327.00;5107138;28;20044;-70
2024/01/08 04:48:47;;;;;;;11.80;8.82;;;;;;;-2.79;59.56;99339.97;5107139;28;20296;-69
2024/01/08 04:51:21;;;;;;;13.45;8.73;;;;;;;-2.88;59.71;99314.91;5106713;28;20056;-68
2024/01/08 04:53:48;;;;;;;12.50;8.47;;;;;;;-2.83;59.54;99341.72;5088934;28;20324;-68
2024/01/08 04:56:22;;;;;;;12.68;8.73;;;;;;;-2.83;59.54;99343.44;5106703;28;20414;-69
2024/01/08 04:58:51;;;;;;;11.27;8.88;;;;;;;-3.59;59.54;99232.91;5106977;28;20043;-68
2024/01/08 05:01:18;;;;;;;12.70;8.10;;;;;;;-2.88;59.31;99346.03;5088843;28;20182;-69
2024/01/08 05:03:45;;;;;;;12.73;9.15;;;;;;;-2.86;59.30;99352.09;5107109;28;20036;-69
2024/01/08 05:06:12;;;;;;;12.27;7.85;;;;;;;-2.89;59.50;99346.03;5107009;28;20044;-68
2024/01/08 05:08:39;;;;;;;10.70;7.65;;;;;;;-2.90;59.18;99347.75;5106817;28;20044;-69
2024/01/08 05:11:06;;;;;;;12.65;7.90;;;;;;;-2.90;59.25;99352.09;5106472;28;20258;-69
2024/01/08 05:13:32;;;;;;;12.77;8.20;;;;;;;-2.96;59.41;99347.78;5106749;28;20048;-68
2024/01/08 05:16:01;;;;;;;11.70;8.30;;;;;;;-2.90;59.31;99352.09;5106408;28;20299;-69
2024/01/08 05:18:28;;;;;;;11.77;8.52;;;;;;;-2.90;59.36;99355.53;5089423;28;20040;-68
2024/01/08 05:20:55;;;;;;;13.55;9.20;;;;;;;-2.97;59.33;99362.47;5106519;28;20062;-69
2024/01/08 05:23:22;;;;;;;14.13;8.75;;;;;;;-2.97;59.19;99364.19;5106514;28;20040;-69
2024/01/08 05:25:48;;;;;;;13.75;9.00;;;;;;;-2.97;59.25;99359.88;5106348;28;20040;-69
2024/01/08 05:28:15;;;;;;;13.23;8.68;;;;;;;-2.93;59.27;99368.50;5089209;28;20051;-68
2024/01/08 05:30:41;;;;;;;12.55;8.68;;;;;;;-3.01;59.17;99381.50;5106361;28;20085;-68
2024/01/08 05:33:10;;;;;;;12.82;9.38;;;;;;;-3.08;58.93;99379.75;5106286;28;20081;-69
2024/01/08 05:35:37;;;;;;;12.05;8.48;;;;;;;-3.16;59.07;99367.66;5106310;28;20044;-68
2024/01/08 05:38:04;;;;;;;12.23;8.82;;;;;;;-3.07;59.30;99373.72;5106049;28;20107;-69
2024/01/08 05:40:30;;;;;;;12.90;8.55;;;;;;;-3.01;59.39;99381.50;5106252;28;20039;-68
2024/01/08 05:42:57;;;;;;;15.63;9.80;;;;;;;-3.03;59.01;99391.00;5105927;28;20052;-69
2024/01/08 05:45:24;;;;;;;13.70;9.80;;;;;;;-2.99;59.15;99400.50;5105813;28;20040;-68
2024/01/08 05:47:52;;;;;;;16.10;10.52;;;;;;;-3.07;59.26;99403.97;5106059;28;20092;-68
2024/01/08 05:50:21;;;;;;;14.95;9.68;;;;;;;-3.05;59.41;99395.31;5105615;28;20067;-68
2024/01/08 05:52:47;;;;;;;16.35;9.23;;;;;;;-3.10;59.25;99403.97;5088251;28;20055;-69
2024/01/08 05:55:15;;;;;;;12.70;8.85;;;;;;;-3.09;59.29;99409.16;5105755;28;20078;-68
2024/01/08 05:57:41;;;;;;;12.93;9.00;;;;;;;-3.08;59.23;99408.28;5105993;28;20067;-68
2024/01/08 06:00:09;;;;;;;13.20;9.50;;;;;;;-3.13;59.05;99409.13;5106001;28;20052;-68
2024/01/08 06:02:36;;;;;;;13.20;9.88;;;;;;;-3.32;59.30;99382.34;5105927;28;20089;-68
2024/01/08 06:05:02;;;;;;;13.88;9.70;;;;;;;-3.08;59.13;99423.84;5105492;28;20200;-69
2024/01/08 06:07:30;;;;;;;16.98;9.82;;;;;;;-3.30;58.89;99402.22;5105843;28;20254;-69
2024/01/08 06:09:57;;;;;;;17.52;9.13;;;;;;;-3.11;58.91;99428.16;5105718;28;20044;-69
2024/01/08 06:12:24;;;;;;;14.27;9.20;;;;;;;-3.15;58.86;99432.47;5105848;28;20043;-70
2024/01/08 06:14:50;;;;;;;14.45;9.65;;;;;;;-3.15;59.07;99429.88;5105805;28;20044;-70
2024/01/08 06:17:17;;;;;;;15.13;9.35;;;;;;;-3.16;58.92;99433.34;5105823;28;20044;-70
2024/01/08 06:19:44;;;;;;;13.82;9.65;;;;;;;-3.18;58.62;99440.25;5105510;28;20307;-71
2024/01/08 06:22:11;;;;;;;16.45;10.50;;;;;;;-3.17;58.55;99438.53;5105735;28;20051;-68
2024/01/08 06:24:39;;;;;;;13.90;9.70;;;;;;;-3.20;58.61;99439.38;5105603;28;20055;-68
2024/01/08 06:27:06;;;;;;;15.77;10.30;;;;;;;-3.17;58.37;99443.69;5088530;28;20040;-69
2024/01/08 06:29:32;;;;;;;14.82;9.07;;;;;;;-3.29;58.58;99440.22;5105733;28;20052;-70
2024/01/08 06:31:59;;;;;;;13.27;9.27;;;;;;;-3.22;58.54;99450.59;5105236;28;20331;-70
2024/01/08 06:34:26;;;;;;;13.95;9.93;;;;;;;-3.22;58.53;99455.78;5105737;28;20040;-69
2024/01/08 06:36:53;;;;;;;15.10;9.48;;;;;;;-3.23;58.53;99441.97;5105612;28;20052;-68
2024/01/08 06:39:19;;;;;;;13.52;8.98;;;;;;;-3.27;58.27;99460.97;5105333;28;20044;-68
2024/01/08 06:41:47;;;;;;;14.23;10.45;;;;;;;-3.32;58.58;99460.09;5087409;28;20040;-69
2024/01/08 06:44:14;;;;;;;16.65;10.05;;;;;;;-3.32;58.84;99457.50;5105019;28;20097;-69
2024/01/08 06:46:41;;;;;;;16.38;9.88;;;;;;;-3.28;59.09;99470.47;5105646;28;20044;-71
2024/01/08 06:49:08;;;;;;;13.65;9.52;;;;;;;-3.33;58.67;99463.53;5105390;28;20174;-70
2024/01/08 06:51:40;;;;;;;12.18;9.63;;;;;;;-3.30;58.84;99476.50;5105147;28;20185;-70
2024/01/08 06:54:07;;;;;;;14.25;9.13;;;;;;;-3.33;58.72;99469.59;5105387;28;20277;-70
2024/01/08 06:56:34;;;;;;;15.88;10.75;;;;;;;-3.35;59.06;99476.50;5087475;28;20040;-70
2024/01/08 06:59:03;;;;;;;14.98;9.90;;;;;;;-3.37;58.71;99487.72;5105447;28;20105;-71
2024/01/08 07:01:30;;;;;;;16.60;10.80;;;;;;;-3.39;58.96;99485.13;5105379;28;20267;-71
2024/01/08 07:03:57;;;;;;;14.52;9.38;;;;;;;-3.35;58.98;99486.00;5105401;28;20094;-70
2024/01/08 07:06:24;;;;;;;14.70;10.10;;;;;;;-3.42;58.64;99490.31;5105526;28;20052;-71
2024/01/08 07:08:50;;;;;;;16.67;11.02;;;;;;;-3.39;58.70;99494.63;5105077;28;20250;-71
2024/01/08 07:11:21;;;;;;;14.05;9.98;;;;;;;-3.40;58.69;99500.69;5105238;28;20067;-71
2024/01/08 07:13:49;;;;;;;17.33;11.52;;;;;;;-3.39;58.57;99500.69;5105586;28;20052;-71
2024/01/08 07:16:17;;;;;;;14.45;9.88;;;;;;;-3.44;58.73;99507.56;5105337;28;20324;-70
2024/01/08 07:18:45;;;;;;;15.07;10.23;;;;;;;-3.39;58.53;99511.03;5105540;28;20040;-70
2024/01/08 07:21:16;;;;;;;14.50;10.05;;;;;;;-3.44;58.63;99511.88;5105176;28;20073;-70
2024/01/08 07:23:43;;;;;;;15.48;11.05;;;;;;;-3.93;58.44;99433.97;5108719;28;20044;-70
2024/01/08 07:26:10;;;;;;;14.85;9.90;;;;;;;-3.41;58.47;99517.09;5108712;28;20040;-70
2024/01/08 07:28:37;;;;;;;16.15;10.23;;;;;;;-3.40;58.84;99518.81;5108973;28;20110;-70
2024/01/08 07:31:05;;;;;;;15.07;10.18;;;;;;;-3.38;58.76;99522.28;5108333;28;20048;-71
2024/01/08 07:33:33;;;;;;;15.48;9.02;;;;;;;-3.41;58.62;99515.34;5108620;28;20036;-70
2024/01/08 07:35:59;;;;;;;13.80;8.63;;;;;;;-3.29;58.77;99522.31;5108305;28;20052;-70
2024/01/08 07:38:27;;;;;;;14.23;10.25;;;;;;;-3.36;58.37;99526.59;5108458;28;20044;-71
2024/01/08 07:40:54;;;;;;;14.23;9.45;;;;;;;-3.27;58.85;99528.38;5108485;28;20233;-70
2024/01/08 07:43:20;;;;;;;16.90;10.63;;;;;;;-3.25;58.88;99534.41;5108456;28;20115;-71
2024/01/08 07:45:47;;;;;;;16.58;12.25;;;;;;;-3.31;58.77;99534.41;5108587;28;20103;-70
2024/01/08 07:48:15;;;;;;;15.07;10.25;;;;;;;-3.29;58.88;99543.91;5107981;28;20044;-70
2024/01/08 07:50:43;;;;;;;17.52;10.38;;;;;;;-3.35;58.85;99537.84;5086709;28;20060;-70
2024/01/08 07:53:09;;;;;;;14.45;10.65;;;;;;;-3.34;59.00;99537.84;5087706;28;20094;-70
2024/01/08 07:55:36;;;;;;;15.45;10.70;;;;;;;-3.36;58.98;99549.06;5087855;28;20052;-70
2024/01/08 07:58:03;;;;;;;16.50;10.90;;;;;;;-3.27;59.06;99552.56;5087739;28;20044;-70
2024/01/08 08:00:30;;;;;;;15.30;10.25;;;;;;;-3.26;58.86;99550.81;5087482;28;20044;-70
2024/01/08 08:02:57;;;;;;;17.23;10.40;;;;;;;-3.24;58.95;99553.44;5087648;28;20044;-71
2024/01/08 08:05:23;;;;;;;18.30;10.75;;;;;;;-3.23;58.85;99548.25;5087615;28;20044;-70
2024/01/08 08:07:52;;;;;;;16.65;10.25;;;;;;;-3.23;59.17;99552.56;5087422;28;20096;-70
2024/01/08 08:10:19;;;;;;;18.25;12.07;;;;;;;-3.34;59.13;99562.91;5087622;28;20192;-70
2024/01/08 08:12:45;;;;;;;19.95;12.38;;;;;;;-3.29;59.16;99574.16;5088057;28;20055;-70
2024/01/08 08:15:12;;;;;;;18.10;12.15;;;;;;;-3.27;59.07;99578.47;5087790;28;20292;-70
2024/01/08 08:17:41;;;;;;;15.95;11.80;;;;;;;-3.30;59.12;99581.06;5087465;28;20050;-70
2024/01/08 08:20:09;;;;;;;14.70;10.43;;;;;;;-3.31;58.99;99575.88;5087411;28;20107;-70
2024/01/08 08:22:37;;;;;;;17.10;10.88;;;;;;;-3.30;59.01;99585.38;5087194;28;20048;-70
2024/01/08 08:25:06;;;;;;;15.45;10.25;;;;;;;-3.81;59.10;99503.06;5087475;28;20116;-70
2024/01/08 08:27:35;;;;;;;16.25;10.63;;;;;;;-3.19;59.41;99598.38;5087559;28;20041;-70
2024/01/08 08:30:02;;;;;;;16.05;11.18;;;;;;;-3.15;59.42;99598.41;5087192;28;20112;-70
2024/01/08 08:32:28;;;;;;;18.42;11.73;;;;;;;-3.16;59.69;99596.66;5086849;28;20041;-70
2024/01/08 08:34:55;;;;;;;17.88;11.40;;;;;;;-3.19;59.87;99599.25;5087064;28;20186;-70
2024/01/08 08:37:21;;;;;;;14.65;10.30;;;;;;;-3.27;60.25;99607.00;5087029;28;20070;-70
2024/01/08 08:39:48;;;;;;;18.60;11.52;;;;;;;-3.19;60.32;99611.34;5086911;28;20086;-70
2024/01/08 08:42:16;;;;;;;18.20;11.50;;;;;;;-3.17;60.27;99610.47;5086918;28;20045;-70
2024/01/08 08:44:43;;;;;;;14.02;9.95;;;;;;;-3.18;60.57;99616.53;5086962;28;20045;-70
2024/01/08 08:47:10;;;;;;;15.38;11.02;;;;;;;-3.14;60.54;99627.78;5086839;28;20041;-70
2024/01/08 08:49:37;;;;;;;18.13;10.80;;;;;;;-3.17;60.81;99622.59;5086484;28;20292;-70
2024/01/08 08:52:04;;;;;;;17.33;10.30;;;;;;;-3.22;60.53;99622.56;5066511;28;20216;-70
2024/01/08 08:54:31;;;;;;;15.95;11.40;;;;;;;-3.22;61.01;99629.47;5066328;28;20048;-70
2024/01/08 08:56:58;;;;;;;16.65;10.65;;;;;;;-3.27;61.32;99634.63;5066659;28;20040;-70
2024/01/08 08:59:26;;;;;;;15.68;11.07;;;;;;;-3.20;61.15;99632.94;5066370;28;20368;-71
2024/01/08 09:01:53;;;;;;;18.25;10.43;;;;;;;-3.28;61.29;99648.47;5066573;28;20041;-70
2024/01/08 09:04:19;;;;;;;16.90;10.80;;;;;;;-3.27;61.22;99642.41;5066864;28;20044;-70
2024/01/08 09:06:46;;;;;;;15.25;11.00;;;;;;;-3.28;61.65;99651.03;5065863;28;20063;-70
2024/01/08 09:09:13;;;;;;;15.88;10.30;;;;;;;-3.28;61.83;99653.63;5066654;28;20045;-70
2024/01/08 09:11:39;;;;;;;20.33;11.63;;;;;;;-3.48;61.67;99619.84;5066123;28;20037;-70
2024/01/08 09:14:07;;;;;;;17.17;10.80;;;;;;;-3.26;61.84;99659.69;5066440;28;20052;-70
2024/01/08 09:16:35;;;;;;;16.38;10.70;;;;;;;-3.27;61.95;99664.00;5065935;28;20041;-70
2024/01/08 09:19:03;;;;;;;17.17;10.15;;;;;;;-3.28;62.05;99659.69;5066265;28;20056;-70
2024/01/08 09:21:29;;;;;;;16.15;11.02;;;;;;;-3.31;62.39;99659.69;5066234;28;20040;-70
2024/01/08 09:23:56;;;;;;;19.08;12.07;;;;;;;-3.27;62.10;99673.50;5066520;28;20036;-70
2024/01/08 09:26:23;;;;;;;17.52;11.85;;;;;;;-3.23;62.56;99667.50;5066136;28;20090;-70
2024/01/08 09:28:49;;;;;;;18.45;11.98;;;;;;;-3.35;62.41;99634.59;5066030;28;20049;-70
2024/01/08 09:31:16;;;;;;;18.90;12.95;;;;;;;-3.13;62.64;99674.44;5065795;28;20040;-70
2024/01/08 09:33:45;;;;;;;17.65;11.90;;;;;;;-3.16;62.66;99666.66;5064845;28;20296;-71
2024/01/08 09:36:12;;;;;;;23.90;12.38;;;;;;;-3.08;62.74;99671.88;5066308;28;20107;-70
2024/01/08 09:38:39;;;;;;;16.30;12.40;;;;;;;-3.30;62.96;99632.03;5065877;28;20056;-70
2024/01/08 09:41:06;;;;;;;18.92;12.98;;;;;;;-3.15;63.35;99677.91;5065570;28;20083;-70
2024/01/08 09:43:39;;;;;;;19.52;13.10;;;;;;;-3.39;63.82;99638.03;5065877;28;20110;-70
2024/01/08 09:46:09;;;;;;;20.17;14.02;;;;;;;-3.14;63.96;99675.31;5065283;28;20056;-70
2024/01/08 09:48:36;;;;;;;17.00;11.60;;;;;;;-3.34;64.28;99643.25;5066034;28;20052;-70
2024/01/08 09:51:05;;;;;;;18.10;12.98;;;;;;;-3.10;64.11;99678.78;5088841;28;20312;-70
2024/01/08 09:53:33;;;;;;;18.40;13.40;;;;;;;-3.06;64.52;99677.94;5106076;28;20052;-70
2024/01/08 09:56:02;;;;;;;19.10;13.57;;;;;;;-3.12;64.84;99680.50;5105982;28;20047;-70
2024/01/08 09:58:29;;;;;;;21.50;13.90;;;;;;;-3.12;64.94;99675.31;5106095;28;20106;-70
2024/01/08 10:00:55;;;;;;;21.52;14.00;;;;;;;-3.19;64.67;99677.00;5105474;28;20250;-70
2024/01/08 10:03:22;;;;;;;20.55;13.73;;;;;;;-3.53;64.75;99611.19;5105496;28;20251;-70
2024/01/08 10:05:50;;;;;;;22.08;14.82;;;;;;;-3.17;64.91;99670.13;5105787;28;20224;-70
2024/01/08 10:08:18;;;;;;;16.80;11.80;;;;;;;-3.16;64.89;99670.97;5105874;28;20189;-71
2024/01/08 10:10:47;;;;;;;19.73;12.77;;;;;;;-3.33;65.22;99653.63;5106450;28;20231;-71
2024/01/08 10:13:14;;;;;;;17.70;12.80;;;;;;;-3.12;65.71;99671.00;5105789;28;20044;-71
2024/01/08 10:15:47;;;;;;;22.00;13.63;;;;;;;-3.10;65.50;99671.88;5087942;28;20048;-71
2024/01/08 10:18:15;;;;;;;20.42;14.05;;;;;;;-3.07;65.35;99671.03;5105723;28;20111;-70
2024/01/08 10:20:44;;;;;;;21.35;14.18;;;;;;;-3.08;65.83;99677.94;5105410;28;20189;-70
2024/01/08 10:23:16;;;;;;;19.45;13.63;;;;;;;-3.12;65.62;99681.38;5105741;28;20044;-71
2024/01/08 10:25:50;;;;;;;18.55;13.88;;;;;;;-3.16;66.21;99681.34;5105795;28;20070;-71
2024/01/08 10:28:18;;;;;;;23.23;15.60;;;;;;;-3.13;66.17;99683.97;5105679;28;20044;-69
2024/01/08 10:30:44;;;;;;;18.95;13.52;;;;;;;-3.35;66.22;99642.38;5105566;28;20052;-71
2024/01/08 10:33:11;;;;;;;19.08;13.57;;;;;;;-3.20;65.95;99658.84;5105836;28;20097;-70
2024/01/08 10:35:39;;;;;;;19.40;13.52;;;;;;;-3.11;65.91;99677.91;5105390;28;20040;-70
2024/01/08 10:38:06;;;;;;;19.60;13.13;;;;;;;-3.07;65.91;99682.25;5105502;28;20044;-70
2024/01/08 10:40:33;;;;;;;20.20;14.32;;;;;;;-3.10;65.86;99690.03;5105343;28;20043;-70
2024/01/08 10:43:01;;;;;;;22.23;14.50;;;;;;;-3.05;65.73;99680.53;5105279;28;20051;-70
2024/01/08 10:45:28;;;;;;;21.73;15.30;;;;;;;-3.09;66.03;99680.53;5105741;28;20366;-70
2024/01/08 10:48:06;;;;;;;20.77;14.35;;;;;;;-3.17;66.01;99684.81;5105348;28;20044;-71
2024/01/08 10:50:37;;;;;;;20.00;13.50;;;;;;;-3.13;65.55;99678.78;5083943;28;20063;-71
2024/01/08 10:53:04;;;;;;;22.35;14.13;;;;;;;-3.27;65.55;99660.56;5085013;28;20112;-71
2024/01/08 10:55:32;;;;;;;20.98;13.93;;;;;;;-3.08;65.70;99683.13;5085637;28;20036;-71
2024/01/08 10:58:04;;;;;;;21.95;13.30;;;;;;;-3.27;65.73;99645.00;5088648;28;20308;-71
2024/01/08 11:00:31;;;;;;;22.05;13.35;;;;;;;-3.06;65.71;99686.59;5088590;28;20060;-71
2024/01/08 11:02:59;;;;;;;21.23;13.63;;;;;;;-3.06;65.92;99691.78;5088147;28;20044;-69
2024/01/08 11:05:28;;;;;;;20.60;13.27;;;;;;;-3.02;65.79;99683.16;5088830;28;20040;-70
2024/01/08 11:07:55;;;;;;;19.92;12.68;;;;;;;-2.97;65.72;99676.25;5088771;28;20048;-70
2024/01/08 11:10:24;;;;;;;18.92;14.02;;;;;;;-3.09;65.79;99685.72;5089297;28;20352;-70
2024/01/08 11:12:55;;;;;;;18.67;14.55;;;;;;;-3.04;65.48;99804.16;5088680;28;20101;-70
2024/01/08 11:15:25;;;;;;;20.63;14.25;;;;;;;-3.05;65.80;99690.03;5088330;28;20051;-70
2024/01/08 11:17:52;;;;;;;20.13;13.75;;;;;;;-3.03;65.72;99690.91;5088284;28;20040;-70
2024/01/08 11:20:42;;;;;;;20.08;13.85;;;;;;;-3.05;66.08;99696.09;5088548;28;20052;-71
2024/01/08 11:23:34;;;;;;;19.85;14.68;;;;;;;-3.03;66.02;99698.69;5088382;28;20062;-72